Time;durP1;ratioP1;P1;durP2;ratioP2;P2;SDS_P1;SDS_P2;PMS_P1;PMS_P2;Temp;Humidity;BMP_temperature;BMP_pressure;BME280_temperature;BME280_humidity;BME280_pressure;Samples;Min_cycle;Max_cycle;Signal;HPM_P1;HPM_P2
2022/01/03 00:02:24;;;;;;;24.48;3.53;;;;;;;9.14;88.71;101211.97;5005810;28;20041;-85
2022/01/03 00:04:50;;;;;;;20.65;3.05;;;;;;;9.15;88.70;101203.25;5021774;28;20035;-84
2022/01/03 00:07:16;;;;;;;19.02;2.60;;;;;;;9.15;88.50;101197.16;4998475;28;20248;-85
2022/01/03 00:09:41;;;;;;;25.23;3.88;;;;;;;9.15;88.26;101202.38;4999210;28;20044;-84
2022/01/03 00:12:07;;;;;;;25.95;4.03;;;;;;;9.15;88.19;101195.41;4998650;28;20244;-85
2022/01/03 00:14:33;;;;;;;19.85;3.22;;;;;;;9.16;88.33;101206.72;4984493;28;20308;-84
2022/01/03 00:16:58;;;;;;;28.15;4.00;;;;;;;9.16;88.46;101194.50;5001126;28;20033;-84
2022/01/03 00:19:23;;;;;;;31.25;3.78;;;;;;;9.15;88.47;101216.31;5000531;28;20037;-84
2022/01/03 00:21:49;;;;;;;27.95;4.05;;;;;;;9.15;88.44;101212.81;5014563;28;20037;-84
2022/01/03 00:24:14;;;;;;;30.23;4.90;;;;;;;9.17;88.35;101211.06;4980554;28;20344;-84
2022/01/03 00:26:40;;;;;;;21.17;3.28;;;;;;;9.15;88.38;101211.09;5000243;28;20038;-84
2022/01/03 00:29:11;;;;;;;30.75;4.13;;;;;;;9.16;87.98;101225.00;5015008;28;20104;-85
2022/01/03 00:31:38;;;;;;;28.50;3.45;;;;;;;9.16;87.68;101204.94;5044990;28;20056;-84
2022/01/03 00:34:05;;;;;;;23.38;3.17;;;;;;;9.16;87.51;101214.56;5020871;28;20021;-84
2022/01/03 00:36:30;;;;;;;26.00;3.42;;;;;;;9.16;87.37;101201.50;5005006;28;20033;-84
2022/01/03 00:38:56;;;;;;;24.90;3.60;;;;;;;9.15;87.35;101215.44;5021056;28;20075;-84
2022/01/03 00:41:22;;;;;;;29.00;3.75;;;;;;;9.15;87.43;101208.47;5004860;28;20035;-84
2022/01/03 00:43:48;;;;;;;22.55;3.03;;;;;;;9.15;86.93;101212.81;5021849;28;20091;-84
2022/01/03 00:46:14;;;;;;;24.33;3.35;;;;;;;9.14;86.94;101221.59;5021379;28;20205;-84
2022/01/03 00:48:39;;;;;;;18.70;2.85;;;;;;;9.14;86.19;101218.97;5005252;28;20033;-84
2022/01/03 00:51:05;;;;;;;26.42;3.08;;;;;;;9.13;86.35;101219.84;5004844;28;20048;-85
2022/01/03 00:53:30;;;;;;;23.88;3.88;;;;;;;9.13;86.43;101227.69;5001384;28;20029;-85
2022/01/03 00:56:38;;;;;;;25.27;4.05;;;;;;;9.12;86.67;101224.25;5031803;28;20288;-85
2022/01/03 00:59:22;;;;;;;28.65;3.55;;;;;;;9.10;86.81;101231.28;4984141;28;20050;-84
2022/01/03 01:01:49;;;;;;;24.42;3.75;;;;;;;9.10;87.16;101227.81;5006608;28;20041;-83
2022/01/03 01:04:15;;;;;;;25.38;3.25;;;;;;;9.09;86.95;101226.09;4989520;28;20069;-84
2022/01/03 01:06:40;;;;;;;15.18;2.55;;;;;;;9.09;87.26;101220.84;5008097;28;20116;-84
2022/01/03 01:09:09;;;;;;;25.48;3.72;;;;;;;9.08;87.43;101247.88;5024713;28;20037;-84
2022/01/03 01:11:35;;;;;;;24.95;4.47;;;;;;;9.06;87.32;101234.00;5025606;28;20357;-85
2022/01/03 01:14:00;;;;;;;30.25;4.05;;;;;;;9.06;87.26;101231.38;5025020;28;20029;-85
2022/01/03 01:16:26;;;;;;;22.00;3.38;;;;;;;9.05;87.33;101225.31;5024488;28;20393;-84
2022/01/03 01:18:51;;;;;;;23.77;3.78;;;;;;;9.04;87.33;101221.00;5043117;28;20049;-84
2022/01/03 01:21:17;;;;;;;22.88;3.17;;;;;;;9.02;87.20;101221.03;5008672;28;20025;-84
2022/01/03 01:23:43;;;;;;;29.65;4.25;;;;;;;9.02;87.49;101241.06;5025032;28;20242;-84
2022/01/03 01:28:53;;;;;;;25.33;3.45;;;;;;;9.01;87.58;101241.97;5022903;28;20053;-84
2022/01/03 01:31:23;;;;;;;24.50;2.38;;;;;;;8.99;87.38;101231.56;4998714;28;20307;-84
2022/01/03 01:33:55;;;;;;;23.92;3.75;;;;;;;8.98;87.41;101237.69;4998494;28;20066;-84
2022/01/03 01:36:27;;;;;;;26.90;3.80;;;;;;;9.00;87.38;101232.41;4983498;28;20034;-84
2022/01/03 01:38:53;;;;;;;24.13;4.40;;;;;;;9.00;87.57;101235.03;4969341;28;20030;-84
2022/01/03 01:41:19;;;;;;;29.00;3.95;;;;;;;8.99;87.52;101243.78;4985993;28;20034;-84
2022/01/03 01:43:46;;;;;;;29.42;4.20;;;;;;;8.99;87.56;101236.78;4984053;28;20387;-84
2022/01/03 01:46:19;;;;;;;21.20;3.08;;;;;;;8.99;87.49;101251.63;4984690;28;20245;-84
2022/01/03 01:48:47;;;;;;;23.08;3.20;;;;;;;8.98;87.76;101237.69;4970179;28;20085;-85
2022/01/03 01:51:14;;;;;;;22.95;3.08;;;;;;;8.98;87.87;101236.81;4985494;28;20026;-84
2022/01/03 01:53:42;;;;;;;24.42;3.88;;;;;;;8.99;87.67;101230.72;5001949;28;20038;-85
2022/01/03 01:56:37;;;;;;;34.40;4.68;;;;;;;8.98;87.84;101242.91;5000795;28;20046;-84
2022/01/03 01:59:11;;;;;;;29.67;4.00;;;;;;;8.98;87.77;101235.06;5000275;28;20377;-84
2022/01/03 02:02:04;;;;;;;36.78;4.82;;;;;;;8.97;87.76;101249.03;5001155;28;20037;-84
2022/01/03 02:04:40;;;;;;;25.73;3.50;;;;;;;8.99;87.79;101256.84;4945616;28;20360;-84
2022/01/03 02:07:17;;;;;;;37.35;4.57;;;;;;;8.98;87.69;101253.34;4988297;28;20034;-84
2022/01/03 02:09:48;;;;;;;27.42;3.72;;;;;;;8.98;87.95;101242.06;4983224;28;20042;-84
2022/01/03 02:12:16;;;;;;;27.85;4.57;;;;;;;8.97;87.82;101246.44;4949564;28;20031;-84
2022/01/03 02:14:41;;;;;;;19.77;3.20;;;;;;;8.95;88.27;101248.22;4971039;28;20042;-85
2022/01/03 02:17:07;;;;;;;21.10;3.45;;;;;;;8.96;88.04;101249.94;4983874;28;20084;-84
2022/01/03 02:19:36;;;;;;;30.38;4.45;;;;;;;8.96;87.92;101255.16;4984963;28;20038;-84
2022/01/03 02:22:02;;;;;;;20.52;2.92;;;;;;;8.96;87.88;101241.25;4967978;28;20037;-83
2022/01/03 02:24:28;;;;;;;27.13;3.35;;;;;;;8.95;87.97;101243.00;4984278;28;20030;-84
2022/01/03 02:26:53;;;;;;;27.10;3.70;;;;;;;8.95;87.59;101258.69;4988207;28;20027;-84
2022/01/03 02:29:18;;;;;;;31.13;4.25;;;;;;;8.96;87.76;101230.78;4965094;28;20037;-84
2022/01/03 02:31:44;;;;;;;35.65;4.65;;;;;;;8.96;87.82;101259.53;5004348;28;20061;-85
2022/01/03 02:34:09;;;;;;;36.45;4.80;;;;;;;8.97;87.75;101256.03;5003088;28;20034;-84
2022/01/03 02:36:36;;;;;;;26.92;3.92;;;;;;;8.96;87.72;101255.16;5002337;28;20042;-84
2022/01/03 02:39:02;;;;;;;32.17;4.28;;;;;;;8.96;87.58;101252.53;5000259;28;20234;-84
2022/01/03 02:41:28;;;;;;;21.55;3.42;;;;;;;8.96;87.57;101252.53;5001110;28;20053;-84
2022/01/03 02:43:53;;;;;;;24.70;3.88;;;;;;;8.97;87.76;101253.41;4984411;28;20030;-84
2022/01/03 02:46:18;;;;;;;36.10;4.65;;;;;;;8.96;87.66;101255.16;4985646;28;20038;-85
2022/01/03 02:48:44;;;;;;;28.08;4.00;;;;;;;8.96;87.66;101252.53;5000850;28;20033;-84
2022/01/03 02:51:12;;;;;;;26.27;3.63;;;;;;;8.96;87.61;101233.41;5000120;28;20359;-84
2022/01/03 02:53:38;;;;;;;26.88;4.18;;;;;;;8.94;87.85;101243.91;4998925;28;20064;-84
2022/01/03 02:56:04;;;;;;;33.00;4.78;;;;;;;8.94;87.57;101249.13;4987834;28;20378;-85
2022/01/03 02:58:30;;;;;;;34.20;4.95;;;;;;;8.94;87.67;101246.50;4967678;28;20049;-84
2022/01/03 03:00:56;;;;;;;29.85;3.78;;;;;;;8.93;88.11;101250.03;4999140;28;20241;-84
2022/01/03 03:03:21;;;;;;;36.45;5.40;;;;;;;8.95;88.20;101255.19;5033153;28;20033;-84
2022/01/03 03:05:47;;;;;;;38.88;4.63;;;;;;;8.95;88.09;101244.75;5014418;28;20038;-85
2022/01/03 03:08:12;;;;;;;33.13;4.72;;;;;;;8.96;88.35;101243.84;5003204;28;20101;-84
2022/01/03 03:10:38;;;;;;;34.70;5.03;;;;;;;8.96;88.39;101246.47;4988318;28;20417;-83
2022/01/03 03:13:03;;;;;;;37.53;6.32;;;;;;;8.95;88.47;101235.16;4999521;28;20401;-84
2022/01/03 03:15:29;;;;;;;29.10;4.72;;;;;;;8.96;88.69;101220.34;5010149;28;20052;-84
2022/01/03 03:17:54;;;;;;;35.05;5.20;;;;;;;8.95;88.90;101223.84;5002861;28;20029;-84
2022/01/03 03:20:25;;;;;;;42.25;5.13;;;;;;;8.95;88.83;101232.56;5019821;28;20057;-84
2022/01/03 03:22:51;;;;;;;33.70;5.32;;;;;;;8.94;89.18;101225.59;5018825;28;20070;-84
2022/01/03 03:25:18;;;;;;;29.85;5.40;;;;;;;8.94;89.38;101225.59;4978295;28;20022;-85
2022/01/03 03:27:46;;;;;;;34.35;5.00;;;;;;;8.96;89.85;101230.78;4999824;28;20026;-85
2022/01/03 03:30:18;;;;;;;38.80;6.00;;;;;;;8.97;89.74;101225.53;4984427;28;20060;-84
2022/01/03 03:32:44;;;;;;;40.25;5.57;;;;;;;8.97;90.04;101228.16;5037581;28;20072;-85
2022/01/03 03:35:10;;;;;;;39.33;4.65;;;;;;;8.97;90.33;101220.31;5023126;28;20332;-84
2022/01/03 03:37:35;;;;;;;38.50;5.78;;;;;;;8.98;90.33;101231.59;4991050;28;20108;-84
2022/01/03 03:40:00;;;;;;;37.30;4.88;;;;;;;8.98;90.03;101215.94;5006630;28;20318;-84
2022/01/03 03:42:26;;;;;;;37.20;5.38;;;;;;;8.97;90.08;101216.84;5041528;28;20029;-84
2022/01/03 03:44:51;;;;;;;45.75;5.13;;;;;;;8.96;90.10;101218.59;5040467;28;20048;-84
2022/01/03 03:47:17;;;;;;;34.40;4.93;;;;;;;8.96;90.15;101246.47;5006702;28;20039;-84
2022/01/03 03:49:42;;;;;;;40.78;6.25;;;;;;;8.95;90.21;101216.88;5023333;28;20033;-84
2022/01/03 03:52:08;;;;;;;31.00;4.47;;;;;;;8.97;90.21;101217.69;5041222;28;20324;-84
2022/01/03 03:54:33;;;;;;;47.33;5.80;;;;;;;8.97;90.10;101220.31;5006391;28;20026;-85
2022/01/03 03:56:59;;;;;;;42.28;6.22;;;;;;;8.97;90.28;101216.84;5040765;28;20093;-84
2022/01/03 03:59:25;;;;;;;33.35;4.55;;;;;;;8.97;90.52;101206.41;5007223;28;20025;-84
2022/01/03 04:01:50;;;;;;;32.85;5.00;;;;;;;8.97;90.41;101203.78;4991055;28;20037;-85
2022/01/03 04:04:16;;;;;;;39.03;4.97;;;;;;;8.94;90.60;101196.03;5023440;28;20060;-85
2022/01/03 04:06:41;;;;;;;32.97;4.55;;;;;;;8.93;90.64;101199.53;5023765;28;20325;-85
2022/01/03 04:09:07;;;;;;;35.67;6.05;;;;;;;8.93;90.84;101197.78;5006602;28;20141;-85
2022/01/03 04:11:32;;;;;;;46.22;5.43;;;;;;;8.94;91.00;101190.81;5023956;28;20064;-85
2022/01/03 04:13:58;;;;;;;32.58;5.68;;;;;;;8.94;91.24;101199.47;5006061;28;20040;-84
2022/01/03 04:16:23;;;;;;;45.33;5.10;;;;;;;8.93;91.01;101183.84;5023930;28;20071;-85
2022/01/03 04:18:48;;;;;;;41.63;5.28;;;;;;;8.93;91.27;101174.28;5007420;28;20086;-85
2022/01/03 04:21:14;;;;;;;30.10;4.65;;;;;;;8.94;91.42;101191.66;5023740;28;20037;-85
2022/01/03 04:23:40;;;;;;;39.35;5.00;;;;;;;8.94;91.68;101196.03;5023886;28;20037;-84
2022/01/03 04:26:05;;;;;;;47.10;6.15;;;;;;;8.92;91.48;101198.69;5006011;28;20029;-85
2022/01/03 04:28:31;;;;;;;34.83;4.75;;;;;;;8.93;91.73;101197.78;5006768;28;20040;-85
2022/01/03 04:30:56;;;;;;;38.42;5.90;;;;;;;8.94;91.52;101199.47;5003241;28;20034;-85
2022/01/03 04:33:22;;;;;;;46.30;5.93;;;;;;;8.95;91.63;101208.16;5003709;28;20415;-85
2022/01/03 04:35:47;;;;;;;45.85;5.22;;;;;;;8.93;91.55;101192.56;5001965;28;20532;-84
2022/01/03 04:38:13;;;;;;;35.63;5.15;;;;;;;8.94;91.54;101204.72;5007032;28;20147;-84
2022/01/03 04:40:38;;;;;;;36.13;5.15;;;;;;;8.94;91.41;101196.88;5041069;28;20042;-84
2022/01/03 04:43:04;;;;;;;32.60;4.78;;;;;;;8.93;91.70;101191.69;5040749;28;20068;-85
2022/01/03 04:45:29;;;;;;;28.30;5.10;;;;;;;8.92;91.76;101187.38;4987392;28;20359;-84
2022/01/03 04:47:54;;;;;;;32.10;4.90;;;;;;;8.91;91.76;101189.13;5003296;28;20210;-85
2022/01/03 04:50:20;;;;;;;36.35;5.13;;;;;;;8.92;91.61;101190.00;5021480;28;20044;-85
2022/01/03 04:52:45;;;;;;;43.05;5.28;;;;;;;8.91;91.58;101183.88;5003286;28;20348;-84
2022/01/03 04:55:11;;;;;;;24.27;4.20;;;;;;;8.89;91.71;101185.69;5001975;28;20091;-85
2022/01/03 04:57:36;;;;;;;40.97;5.13;;;;;;;8.91;91.83;101190.88;5022895;28;20048;-84
2022/01/03 05:00:03;;;;;;;44.58;6.05;;;;;;;8.91;91.59;101190.88;5040487;28;20068;-85
2022/01/03 05:02:28;;;;;;;45.10;5.65;;;;;;;8.93;91.67;101189.97;5023342;28;20060;-85
2022/01/03 05:04:54;;;;;;;43.80;5.82;;;;;;;8.91;91.81;101183.88;5022615;28;20033;-85
2022/01/03 05:07:19;;;;;;;26.10;3.88;;;;;;;8.90;91.56;101174.34;5041264;28;20029;-84
2022/01/03 05:09:45;;;;;;;48.13;6.07;;;;;;;8.90;91.96;101179.59;5023472;28;20072;-85
2022/01/03 05:12:11;;;;;;;33.33;5.13;;;;;;;8.91;91.84;101190.88;4990343;28;20025;-85
2022/01/03 05:14:36;;;;;;;41.25;5.35;;;;;;;8.90;91.81;101183.97;5040985;28;20038;-85
2022/01/03 05:17:02;;;;;;;45.17;5.68;;;;;;;8.92;91.82;101192.59;5022861;28;20041;-84
2022/01/03 05:19:27;;;;;;;45.38;6.45;;;;;;;8.92;91.78;101176.94;5007469;28;20029;-85
2022/01/03 05:21:53;;;;;;;31.67;5.00;;;;;;;8.93;92.18;101189.06;5023142;28;20104;-85
2022/01/03 05:24:18;;;;;;;34.78;4.25;;;;;;;8.92;92.03;101180.38;5040647;28;20267;-84
2022/01/03 05:26:43;;;;;;;45.65;5.18;;;;;;;8.94;92.00;101177.75;5003102;28;20033;-85
2022/01/03 05:29:09;;;;;;;32.53;4.97;;;;;;;8.94;91.88;101175.97;5006527;28;20026;-85
2022/01/03 05:31:34;;;;;;;40.72;5.60;;;;;;;8.95;92.20;101177.69;5006911;28;20230;-85
2022/01/03 05:34:03;;;;;;;47.78;5.90;;;;;;;8.98;91.84;101189.81;5006239;28;20037;-84
2022/01/03 05:36:28;;;;;;;39.93;5.60;;;;;;;8.99;91.99;101174.09;5022640;28;20104;-85
2022/01/03 05:38:54;;;;;;;28.17;4.30;;;;;;;8.99;92.24;101181.94;5022777;28;20048;-84
2022/01/03 05:41:19;;;;;;;29.05;4.32;;;;;;;8.98;92.21;101174.97;5022911;28;20037;-85
2022/01/03 05:43:45;;;;;;;39.70;5.32;;;;;;;8.99;92.05;101173.25;5006917;28;20033;-85
2022/01/03 05:46:11;;;;;;;39.17;4.90;;;;;;;8.99;92.01;101166.25;5015675;28;20041;-85
2022/01/03 05:48:37;;;;;;;37.50;4.97;;;;;;;9.01;92.17;101166.22;5026619;28;20093;-85
2022/01/03 05:51:02;;;;;;;48.72;5.55;;;;;;;9.01;92.17;101163.59;5006440;28;20077;-85
2022/01/03 05:53:30;;;;;;;25.42;4.25;;;;;;;9.00;92.07;101162.75;5023316;28;20033;-85
2022/01/03 05:55:56;;;;;;;24.80;3.80;;;;;;;8.99;92.12;101163.66;5022666;28;20097;-85
2022/01/03 05:58:21;;;;;;;29.48;4.43;;;;;;;8.99;92.27;101160.19;5009793;28;20355;-85
2022/01/03 06:00:47;;;;;;;41.55;5.72;;;;;;;9.00;92.26;101160.16;5043848;28;20042;-85
2022/01/03 06:03:14;;;;;;;31.80;4.93;;;;;;;8.98;92.27;101155.84;5044072;28;20125;-85
2022/01/03 06:06:04;;;;;;;40.05;4.97;;;;;;;8.97;91.96;101155.00;5026254;28;20068;-84
2022/01/03 06:08:27;;;;;;;41.03;4.53;;;;;;;8.97;92.10;101156.78;5029134;28;20168;-85
2022/01/03 06:10:53;;;;;;;34.53;4.43;;;;;;;8.95;91.90;101163.75;5005855;28;20345;-85
2022/01/03 06:13:18;;;;;;;34.67;5.22;;;;;;;8.96;92.11;101155.03;5023956;28;20049;-84
2022/01/03 06:15:44;;;;;;;39.15;5.70;;;;;;;8.95;92.29;101153.31;4974459;28;20029;-84
2022/01/03 06:18:11;;;;;;;30.45;4.53;;;;;;;8.95;92.31;101167.25;5022340;28;20048;-85
2022/01/03 06:20:38;;;;;;;42.45;5.35;;;;;;;8.95;92.00;101159.41;4993488;28;20048;-84
2022/01/03 06:23:03;;;;;;;31.90;4.18;;;;;;;8.96;92.00;101160.25;5009005;28;20025;-85
2022/01/03 06:25:29;;;;;;;37.72;5.25;;;;;;;8.97;91.99;101148.94;5009416;28;20043;-84
2022/01/03 06:27:54;;;;;;;32.53;4.45;;;;;;;8.97;91.85;101147.16;5043156;28;20032;-85
2022/01/03 06:30:20;;;;;;;35.65;4.32;;;;;;;8.96;92.11;101153.28;5025970;28;20041;-84
2022/01/03 06:32:45;;;;;;;34.53;4.78;;;;;;;8.96;91.82;101149.81;5026031;28;20232;-85
2022/01/03 06:35:11;;;;;;;28.75;4.70;;;;;;;8.96;92.02;101147.19;5025440;28;20305;-85
2022/01/03 06:37:36;;;;;;;36.00;5.00;;;;;;;8.95;92.05;101133.28;5043419;28;20033;-85
2022/01/03 06:40:03;;;;;;;30.58;4.13;;;;;;;8.96;92.01;101136.75;4992646;28;20247;-85
2022/01/03 06:42:28;;;;;;;30.33;4.30;;;;;;;8.95;92.03;101135.91;4993393;28;20133;-85
2022/01/03 06:44:54;;;;;;;30.73;4.05;;;;;;;8.96;92.15;101139.38;5025303;28;20140;-84
2022/01/03 06:47:19;;;;;;;33.15;4.05;;;;;;;8.96;92.00;101137.59;5024946;28;20332;-84
2022/01/03 06:49:45;;;;;;;41.65;5.97;;;;;;;8.96;92.04;101126.31;5009255;28;20034;-85
2022/01/03 06:52:10;;;;;;;31.85;4.78;;;;;;;8.95;91.97;101133.28;5024700;28;20021;-85
2022/01/03 06:54:36;;;;;;;25.65;3.88;;;;;;;8.95;91.96;101138.53;5043329;28;20038;-85
2022/01/03 06:57:01;;;;;;;38.97;4.68;;;;;;;8.97;91.78;101128.03;5005048;28;20041;-85
2022/01/03 06:59:27;;;;;;;35.63;4.72;;;;;;;8.97;91.86;101139.31;5024514;28;20037;-85
2022/01/03 07:01:53;;;;;;;28.80;4.07;;;;;;;8.97;91.55;101138.47;4998049;28;20229;-85
2022/01/03 07:04:18;;;;;;;39.55;5.20;;;;;;;8.96;91.42;101132.38;5006810;28;20229;-85
2022/01/03 07:06:43;;;;;;;20.73;3.80;;;;;;;8.96;91.61;101132.38;5029074;28;20029;-85
2022/01/03 07:09:09;;;;;;;21.58;3.65;;;;;;;8.95;91.70;101137.63;5008264;28;20055;-85
2022/01/03 07:11:34;;;;;;;25.73;3.47;;;;;;;8.94;91.64;101131.56;5031557;28;20401;-85
2022/01/03 07:19:28;;;;;;;20.52;3.28;;;;;;;8.90;91.42;101140.41;5040921;28;20362;-85
2022/01/03 07:21:53;;;;;;;28.90;4.15;;;;;;;8.88;91.72;101136.97;5007640;28;20029;-85
2022/01/03 07:24:19;;;;;;;28.63;4.03;;;;;;;8.90;91.67;101132.56;5024630;28;20049;-85
2022/01/03 07:26:44;;;;;;;29.75;4.10;;;;;;;8.89;91.45;101141.28;5024768;28;20021;-85
2022/01/03 07:29:10;;;;;;;21.02;3.33;;;;;;;8.88;91.46;101133.50;4983711;28;20034;-85
2022/01/03 07:31:35;;;;;;;40.75;5.30;;;;;;;8.88;91.70;101141.34;5041487;28;20045;-85
2022/01/03 07:34:00;;;;;;;32.92;4.85;;;;;;;8.88;91.78;101141.34;5003953;28;20057;-84
2022/01/03 07:36:27;;;;;;;32.60;5.05;;;;;;;8.88;91.56;101139.59;5020599;28;20139;-85
2022/01/03 07:38:53;;;;;;;30.90;3.85;;;;;;;8.88;91.51;101143.94;5040322;28;20052;-85
2022/01/03 07:41:18;;;;;;;48.30;5.00;;;;;;;8.87;91.13;101140.47;5038348;28;20037;-85
2022/01/03 07:43:44;;;;;;;36.42;3.78;;;;;;;8.88;91.21;101143.94;5041268;28;20029;-85
2022/01/03 07:46:09;;;;;;;38.45;4.93;;;;;;;8.84;91.60;101149.28;5000083;28;20360;-85
2022/01/03 07:48:35;;;;;;;37.95;4.93;;;;;;;8.85;91.63;101144.91;5015773;28;20212;-85
2022/01/03 07:51:00;;;;;;;35.63;4.38;;;;;;;8.82;91.23;101134.53;5021841;28;20041;-85
2022/01/03 07:53:27;;;;;;;40.47;5.05;;;;;;;8.83;91.38;101154.53;5022778;28;20037;-85
2022/01/03 07:55:52;;;;;;;36.35;5.07;;;;;;;8.81;91.68;101158.94;5025135;28;20057;-85
2022/01/03 07:58:18;;;;;;;40.53;5.63;;;;;;;8.81;91.63;101148.50;5003866;28;20346;-84
2022/01/03 08:00:47;;;;;;;29.98;4.63;;;;;;;8.80;91.57;101154.63;5039330;28;20048;-85
2022/01/03 08:03:12;;;;;;;28.45;3.80;;;;;;;8.79;91.65;101145.94;5009785;28;20068;-85
2022/01/03 08:05:38;;;;;;;26.95;4.22;;;;;;;8.78;91.61;101144.22;5009350;28;20075;-85
2022/01/03 08:08:05;;;;;;;36.03;4.63;;;;;;;8.78;92.04;101151.19;5022244;28;20067;-84
2022/01/03 08:10:30;;;;;;;32.85;4.68;;;;;;;8.77;91.97;101147.75;5039474;28;20388;-85
2022/01/03 08:12:56;;;;;;;18.45;3.85;;;;;;;8.78;91.95;101153.81;5005407;28;20037;-85
2022/01/03 08:15:23;;;;;;;31.42;4.47;;;;;;;8.77;91.99;101145.13;5039612;28;20053;-85
2022/01/03 08:17:49;;;;;;;38.67;4.65;;;;;;;8.76;91.96;101146.00;4985533;28;20033;-85
2022/01/03 08:20:15;;;;;;;31.60;5.05;;;;;;;8.76;91.90;101153.84;5016398;28;20049;-85
2022/01/03 08:22:40;;;;;;;22.45;3.60;;;;;;;8.76;92.00;101142.56;5036790;28;20252;-85
2022/01/03 08:25:06;;;;;;;25.88;3.60;;;;;;;8.76;91.81;101150.38;5004303;28;20083;-85
2022/01/03 08:27:32;;;;;;;39.83;5.65;;;;;;;8.77;91.96;101160.78;5035390;28;20045;-84
2022/01/03 08:29:57;;;;;;;39.67;5.13;;;;;;;8.78;91.91;101154.66;5016389;28;20048;-83
2022/01/03 08:32:22;;;;;;;31.92;4.90;;;;;;;8.80;91.74;101167.66;5036324;28;20539;-85
2022/01/03 08:34:50;;;;;;;29.02;4.03;;;;;;;8.80;91.65;101171.16;5018719;28;20052;-83
2022/01/03 08:37:15;;;;;;;23.10;3.85;;;;;;;8.81;91.43;101169.41;5017274;28;20440;-85
2022/01/03 08:39:41;;;;;;;32.22;5.68;;;;;;;8.82;91.56;101176.31;5004192;28;20029;-85
2022/01/03 08:42:06;;;;;;;35.85;4.85;;;;;;;8.80;91.56;101184.22;5001937;28;20268;-85
2022/01/03 08:44:32;;;;;;;36.28;4.93;;;;;;;8.82;91.38;101178.94;5020429;28;20039;-84
2022/01/03 08:46:57;;;;;;;23.75;3.40;;;;;;;8.82;91.25;101171.97;5003020;28;20069;-85
2022/01/03 08:49:23;;;;;;;39.55;4.50;;;;;;;8.82;91.48;101171.97;5025181;28;20045;-84
2022/01/03 08:51:48;;;;;;;28.48;4.38;;;;;;;8.83;91.29;101172.81;5023837;28;20274;-84
2022/01/03 08:54:14;;;;;;;19.17;3.67;;;;;;;8.82;91.33;101163.25;5004512;28;20037;-84
2022/01/03 08:56:39;;;;;;;30.02;4.70;;;;;;;8.81;91.56;101162.41;5002243;28;20232;-84
2022/01/03 08:59:05;;;;;;;33.80;4.70;;;;;;;8.80;91.54;101159.84;5019954;28;20068;-84
2022/01/03 09:01:30;;;;;;;26.60;4.20;;;;;;;8.80;91.45;101160.72;5001627;28;20037;-84
2022/01/03 09:03:56;;;;;;;35.38;4.72;;;;;;;8.79;91.69;101155.53;5035544;28;20033;-85
2022/01/03 09:06:22;;;;;;;39.28;4.80;;;;;;;8.80;91.75;101158.09;5004019;28;20045;-85
2022/01/03 09:08:47;;;;;;;32.40;4.22;;;;;;;8.81;91.36;101145.91;5035543;28;20041;-83
2022/01/03 09:11:13;;;;;;;23.65;3.70;;;;;;;8.80;91.56;101149.38;5019581;28;20842;-85
2022/01/03 09:13:38;;;;;;;25.92;3.53;;;;;;;8.77;91.28;101147.75;5036199;28;20109;-84
2022/01/03 09:16:07;;;;;;;27.27;4.47;;;;;;;8.79;91.46;101147.69;5016433;28;20056;-85
2022/01/03 09:18:36;;;;;;;;;;;;;;;8.78;91.78;101140.75;5037467;28;20048;-83
2022/01/03 09:21:01;;;;;;;;;;;;;;;8.78;91.58;101154.66;5036017;28;19917;-84
2022/01/03 09:23:31;;;;;;;34.77;4.43;;;;;;;8.78;91.58;101135.53;5022073;28;19917;-84
2022/01/03 09:28:51;;;;;;;24.25;3.85;;;;;;;8.77;91.88;101139.06;5039815;28;20172;-84
2022/01/03 09:31:17;;;;;;;26.08;3.20;;;;;;;8.76;91.91;101125.13;5008719;28;20041;-84
2022/01/03 09:33:43;;;;;;;12.85;3.10;;;;;;;8.77;92.03;101129.44;5024446;28;20167;-84
2022/01/03 09:36:08;;;;;;;30.73;3.95;;;;;;;8.77;92.00;101131.22;5023068;28;20328;-84
2022/01/03 09:38:34;;;;;;;29.83;4.32;;;;;;;8.77;92.16;101136.44;5020947;28;20044;-84
2022/01/03 09:41:02;;;;;;;27.35;3.95;;;;;;;8.79;92.33;101137.25;5023008;28;20116;-84
2022/01/03 09:43:27;;;;;;;30.90;4.43;;;;;;;8.81;92.29;101127.63;5009939;28;20040;-83
2022/01/03 09:45:53;;;;;;;27.88;4.03;;;;;;;8.81;92.30;101112.78;5010007;28;20048;-84
2022/01/03 09:48:18;;;;;;;31.10;4.95;;;;;;;8.81;92.09;101131.06;5007550;28;20069;-84
2022/01/03 09:50:44;;;;;;;22.05;3.03;;;;;;;8.85;92.39;101124.00;5009048;28;20433;-84
2022/01/03 09:53:09;;;;;;;21.52;3.92;;;;;;;8.85;92.32;101124.00;5036573;28;20025;-83
2022/01/03 09:55:35;;;;;;;24.58;3.85;;;;;;;8.86;92.12;101119.63;4991151;28;20056;-85
2022/01/03 09:58:00;;;;;;;18.98;3.33;;;;;;;8.86;92.35;101124.84;5022347;28;20355;-83
2022/01/03 10:00:27;;;;;;;34.65;4.25;;;;;;;8.87;92.33;101130.03;5021134;28;20050;-84
2022/01/03 10:02:53;;;;;;;24.95;3.38;;;;;;;8.87;92.43;101127.41;5021355;28;20045;-85
2022/01/03 10:05:18;;;;;;;35.03;4.57;;;;;;;8.89;92.29;101132.59;5011385;28;20048;-84
2022/01/03 10:07:44;;;;;;;41.33;4.65;;;;;;;8.91;92.35;101129.03;5024568;28;20041;-84
2022/01/03 10:10:09;;;;;;;21.17;3.53;;;;;;;8.93;92.30;101139.44;5012303;28;20644;-84
2022/01/03 10:12:36;;;;;;;31.23;4.65;;;;;;;8.93;92.23;101129.88;5022821;28;20237;-84
2022/01/03 10:15:02;;;;;;;31.98;4.40;;;;;;;8.95;92.27;101129.81;5006763;28;20037;-84
2022/01/03 10:17:27;;;;;;;36.33;4.50;;;;;;;8.94;92.04;101126.34;5024968;28;20060;-84
2022/01/03 10:19:57;;;;;;;24.60;3.67;;;;;;;8.95;92.31;101127.19;5045919;28;20071;-84
2022/01/03 10:22:27;;;;;;;18.20;2.92;;;;;;;8.95;91.98;101135.03;5038581;28;20036;-84
2022/01/03 10:24:52;;;;;;;22.63;4.20;;;;;;;8.95;92.17;101122.84;5022228;28;20057;-84
2022/01/03 10:27:19;;;;;;;20.63;3.42;;;;;;;8.97;92.04;101113.19;5000816;28;20033;-84
2022/01/03 10:29:56;;;;;;;18.67;3.78;;;;;;;8.98;92.11;101103.59;4990931;28;20040;-84
2022/01/03 10:32:29;;;;;;;23.08;3.72;;;;;;;8.98;92.06;101107.06;5001888;28;20361;-84
2022/01/03 10:34:56;;;;;;;21.50;4.82;;;;;;;8.99;92.17;101106.19;5001034;28;20345;-85
2022/01/03 10:37:21;;;;;;;19.60;4.00;;;;;;;9.01;92.15;101098.28;5018348;28;20041;-83
2022/01/03 10:39:47;;;;;;;35.50;4.65;;;;;;;9.01;92.32;101096.53;5002623;28;20120;-84
2022/01/03 10:42:13;;;;;;;19.58;2.63;;;;;;;9.03;92.50;101092.09;5000157;28;20038;-85
2022/01/03 10:44:41;;;;;;;16.13;2.70;;;;;;;9.06;92.31;101093.78;5019385;28;20375;-84
2022/01/03 10:47:08;;;;;;;30.70;4.53;;;;;;;9.09;92.21;101098.91;5001125;28;20048;-85
2022/01/03 10:49:34;;;;;;;35.30;5.13;;;;;;;9.13;92.36;101094.44;5002338;28;20044;-84
2022/01/03 10:52:17;;;;;;;23.02;3.65;;;;;;;9.15;92.07;101092.63;4985829;28;20037;-84
2022/01/03 10:54:43;;;;;;;21.92;3.40;;;;;;;9.16;91.94;101076.91;5018497;28;20038;-83
2022/01/03 10:57:09;;;;;;;27.10;4.00;;;;;;;9.18;92.11;101075.09;5018555;28;20069;-84
2022/01/03 10:59:36;;;;;;;35.08;4.93;;;;;;;9.22;91.81;101087.19;5001593;28;20084;-84
2022/01/03 11:02:06;;;;;;;30.63;4.70;;;;;;;9.25;91.67;101088.00;5017487;28;20108;-84
2022/01/03 11:04:47;;;;;;;27.50;4.28;;;;;;;9.26;91.82;101080.13;5010625;28;20045;-84
2022/01/03 11:13:09;;;;;;;31.02;4.65;;;;;;;9.34;91.55;101077.25;5014882;28;20096;-84
2022/01/03 11:15:36;;;;;;;32.58;4.00;;;;;;;9.34;91.39;101082.47;5017637;28;20041;-84
2022/01/03 11:18:09;;;;;;;27.73;4.15;;;;;;;9.33;91.22;101065.94;5012045;28;20049;-84
2022/01/03 11:20:34;;;;;;;28.35;4.25;;;;;;;9.33;91.17;101072.91;5014455;28;20042;-84
2022/01/03 11:23:00;;;;;;;34.30;4.57;;;;;;;9.35;91.42;101071.09;5018643;28;20030;-83
2022/01/03 11:25:33;;;;;;;31.85;4.35;;;;;;;9.35;91.31;101066.75;5018566;28;20034;-84
2022/01/03 11:28:00;;;;;;;28.50;5.13;;;;;;;9.38;91.27;101068.41;5003119;28;20039;-83
2022/01/03 11:30:25;;;;;;;36.40;4.45;;;;;;;9.38;91.42;101063.16;4994052;28;20034;-84
2022/01/03 11:32:51;;;;;;;25.73;4.10;;;;;;;9.39;91.29;101046.59;4986207;28;20365;-84
2022/01/03 11:35:16;;;;;;;20.75;3.35;;;;;;;9.39;91.06;101033.53;4995821;28;20433;-84
2022/01/03 11:37:46;;;;;;;27.05;4.47;;;;;;;9.42;91.15;101041.25;4999346;28;20066;-83
2022/01/03 11:40:15;;;;;;;27.83;3.88;;;;;;;9.45;91.16;101040.31;4997255;28;20026;-84
2022/01/03 11:42:44;;;;;;;23.27;3.85;;;;;;;9.46;90.85;101019.34;4991650;28;20053;-84